Flight Track Log - Related Links

Times and Time Zones

All times are in EDT time to prevent confusion due to time zone crossing. See the JTA65 flight status page for this flight to view local times or setup timezone preferences in your user account.

Time Position Orientation Groundspeed Altitude Reporting Facility
EDT Latitude Longitude Course Direction KTS MPH feet Rate Location/Type
Mon 07:24:00 AM 33.2712 130.3209 199° South  Level Estimated
Mon 07:25:00 AM 33.1661 130.2780 199° South  Level Estimated
Mon 07:26:00 AM 33.0609 130.2352 199° South  Level Estimated
Mon 07:27:00 AM 32.9557 130.1925 199° South  Level Estimated
Mon 07:28:00 AM 32.8505 130.1499 199° South  Level Estimated
Mon 07:29:00 AM 32.7453 130.1074 199° South  Level Estimated
Mon 07:30:00 AM 32.6400 130.0650 199° South  Level Estimated
Mon 07:31:00 AM 32.5348 130.0228 199° South  Level Estimated
Mon 07:32:00 AM 32.4295 129.9806 199° South  Level Estimated
Mon 07:33:00 AM 32.3242 129.9385 199° South  Level Estimated
Mon 07:34:00 AM 32.2190 129.8965 199° South  Level Estimated
Mon 07:35:00 AM 32.1137 129.8546 199° South  Level Estimated
Mon 07:36:00 AM 32.0083 129.8128 199° South  Level Estimated
Mon 07:37:00 AM 31.9030 129.7711 199° South  Level Estimated
Mon 07:38:00 AM 31.7976 129.7295 199° South  Level Estimated
Mon 07:39:00 AM 31.6923 129.6880 199° South  Level Estimated
Mon 07:40:00 AM 31.5869 129.6465 199° South  Level Estimated
Mon 07:41:00 AM 31.4784 129.6040 198° South  Level Estimated
Mon 07:42:00 AM 31.3699 129.5616 198° South  Level Estimated
Mon 07:43:00 AM 31.2614 129.5192 198° South  Level Estimated
Mon 07:44:00 AM 31.1513 129.4763 198° South  Level Estimated
Mon 07:45:00 AM 31.0411 129.4336 198° South  Level Estimated
Mon 07:46:00 AM 30.9309 129.3909 198° South  Level Estimated
Mon 07:47:00 AM 30.8207 129.3483 198° South  Level Estimated
Mon 07:48:00 AM 30.7105 129.3058 198° South  Level Estimated
Mon 07:49:00 AM 30.6003 129.2634 198° South  Level Estimated
Mon 07:50:00 AM 30.4901 129.2211 198° South  Level Estimated
Mon 07:51:00 AM 30.3798 129.1790 198° South  Level Estimated
Mon 07:52:00 AM 30.2696 129.1369 198° South  Level Estimated
Mon 07:53:00 AM 30.1593 129.0949 198° South  Level Estimated
Mon 07:54:00 AM 30.0490 129.0529 198° South  Level Estimated
Mon 07:55:00 AM 29.9387 129.0111 198° South  Level Estimated
Mon 07:56:00 AM 29.8284 128.9694 198° South  Level Estimated
Mon 07:57:00 AM 29.7181 128.9278 198° South  Level Estimated
Mon 07:58:00 AM 29.6077 128.8862 198° South  Level Estimated
Mon 07:59:00 AM 29.4974 128.8448 198° South  Level Estimated
Mon 08:00:00 AM 29.3870 128.8034 198° South  Level Estimated
Mon 08:01:00 AM 29.2766 128.7622 198° South  Level Estimated
Mon 08:02:00 AM 29.1663 128.7210 198° South  Level Estimated
Mon 08:03:00 AM 29.0559 128.6799 198° South  Level Estimated
Mon 08:04:00 AM 28.9454 128.6389 198° South  Level Estimated
Mon 08:05:00 AM 28.8350 128.5980 198° South  Level Estimated
Mon 08:06:00 AM 28.7246 128.5571 198° South  Level Estimated
Mon 08:07:00 AM 28.6141 128.5164 198° South  Level Estimated
Mon 08:08:00 AM 28.5037 128.4757 198° South  Level Estimated
Mon 08:09:00 AM 28.3932 128.4352 198° South  Level Estimated
Mon 08:10:00 AM 28.2827 128.3947 198° South  Level Estimated
Mon 08:11:00 AM 28.1722 128.3543 198° South  Level Estimated
Mon 08:12:00 AM 28.0617 128.3140 198° South  Level Estimated
Mon 08:13:00 AM 27.9512 128.2737 198° South  Level Estimated
Mon 08:14:00 AM 27.8406 128.2336 198° South  Level Estimated
Mon 08:15:00 AM 27.7301 128.1935 198° South  Level Estimated
Mon 08:16:00 AM 27.6195 128.1535 198° South  Level Estimated
Mon 08:17:00 AM 27.5089 128.1136 198° South  Level Estimated
Mon 08:18:00 AM 27.3984 128.0738 198° South  Level Estimated
Mon 08:19:00 AM 27.2878 128.0340 198° South  Level Estimated
Mon 08:20:00 AM 27.1772 127.9943 198° South  Level Estimated
Mon 08:21:00 AM 27.0614 127.9529 198° South  Level Estimated
Mon 08:22:00 AM 26.9456 127.9115 198° South  Level Estimated
Mon 08:23:00 AM 26.8297 127.8702 198° South  Level Estimated
Mon 08:24:00 AM 26.7139 127.8290 198° South  Level Estimated
Mon 08:25:00 AM 26.5980 127.7879 198° South  Level Estimated
Mon 08:26:00 AM 26.4785 127.7456 198° South  Level Estimated
Mon 08:27:00 AM 26.3588 127.7033 198° South  Level Estimated
Mon 08:28:00 AM 26.2392 127.6611 198° South  Level Estimated
Mon 08:29:00 AM 26.1958 127.6459 198° South  Level Estimated
Mon 08:30:00 AM 26.1958 127.6459 347° North  Level Estimated
Mon 08:31:00 AM 26.1958 127.6459 347° North  Level Estimated
Mon 08:32:00 AM 26.1958 127.6459 347° North  Level Estimated
Mon 08:33:00 AM 26.1958 127.6459 347° North  Level Estimated
Mon 08:34:00 AM 26.1958 127.6459 347° North  Level Estimated
Mon 08:35:00 AM 26.1958 127.6459 347° North  Level Estimated

Login

Don't have an account? Register now (free) for customized features, flight alerts, and more!